Wednesday, July 23, 2014
07:44 UTC
  |  Log In   |  Register Free
Airport Search:

Carmi Municipal Airport
(KCUL)

Carmi Municipal Airport Diagram
No Airport Diagram Available

FAA data valid effective May 29, 2014 until July 24, 2014 (unless otherwise noted).

 
 
 
 
 
 
 
 
 
 
 
 
 
 

Current Aviation Weather for Carmi Municipal Airport (KCUL)

The most recent METAR observation for KCUL was updated at: 0635 UTC
METAR Summary (Translated METAR)
KCUL
230635Z AUTO 00000KT 5SM BR CLR 20/20 A3003 RMK AO2 T02000197
KFWC
(22.1 nm NW from KCUL)
230635Z AUTO 00000KT 1SM BR CLR 21/21 A3002 RMK AO2
TAF
No TAF information found within 50 nm of KCUL
  Airport Weather Conditions for KCUL

 Current Weather at CUL
68° F
Fog/Mist
North winds at 0.0 mph
CUL NOAA Radar

Pressure: 30.02 in
Humidity: 98%
Wind: Calm
Dew Point: 67.1°F
Visibility: 4.00 mi


Airport Weather Forecast for KCUL

Translated METAR and TAF for KCUL
Translated METAR for KCUL (0737 UTC 23 July 2014)
found at http://aviationweather.gov/adds/metars/
 
METAR text: KCUL 230715Z AUTO 00000KT 4SM BR CLR 20/20 A3002 RMK AO2 T01980196
Conditions at: KCUL (CARMI MUNI , IL, US) observed 0715 UTC 23 July 2014
Temperature: 19.8°C (68°F)
Dewpoint: 19.6°C (67°F) [RH = 99%]
Pressure (altimeter): 30.02 inches Hg (1016.7 mb)
Winds: calm
Visibility: 4 miles (6 km)
Ceiling: at least 12,000 feet AGL
Clouds: sky clear below 12,000 feet AGL
Weather: BR  (mist)
Translated TAF for KCUL

There is no translated TAF available for this airport

Find All Airport Services Find A Hotel Find A Rental Car Find A Golf Course Find A Restaurant $100 Hamburger



FBO's on the Field
FBO Company Facility Photos Services Transportation Aviation Fuel Prices: Prices include tax
Catering Weather Repair Courtesy Rental Type 100LL JetA JetA+ MOGAS 8087
 
Carmi Municipal Airport

This FBO has not yet been rated
FS:Shell
Last Updated: Jul-17
Login to update fuel prices
SS:
Contact Carmi Municipal AirportMore FBO Information
 
Add another FBO Facility Photos Catering Weather Repair Courtesy Rental Type 100LL JetA JetA+ MOGAS 8087
Services Transportation Aviation Fuel Prices: Prices include tax


GlobalAir.com Airport Resource Center model-print
model-print
model-print
model-print